Time;durP1;ratioP1;P1;durP2;ratioP2;P2;SDS_P1;SDS_P2;PMS_P1;PMS_P2;Temp;Humidity;BMP_temperature;BMP_pressure;BME280_temperature;BME280_humidity;BME280_pressure;Samples;Min_cycle;Max_cycle;Signal;HPM_P1;HPM_P2
2021/04/16 00:00:31;;;;;;;6.05;3.28;;;5.30;94.80;;;;;;4834231;29;20053;-64
2021/04/16 00:02:58;;;;;;;6.30;3.40;;;5.30;94.60;;;;;;4848622;29;20421;-64
2021/04/16 00:05:25;;;;;;;6.72;2.83;;;5.30;94.70;;;;;;4850577;29;20054;-64
2021/04/16 00:07:52;;;;;;;5.30;2.35;;;5.20;94.80;;;;;;4841449;29;20058;-64
2021/04/16 00:10:30;;;;;;;5.05;2.80;;;5.20;95.00;;;;;;4831343;29;20054;-64
2021/04/16 00:12:58;;;;;;;7.35;3.08;;;5.20;94.80;;;;;;4818074;29;20515;-64
2021/04/16 00:15:25;;;;;;;7.43;3.20;;;5.20;94.80;;;;;;4853294;29;20053;-64
2021/04/16 00:17:52;;;;;;;8.27;3.92;;;5.20;94.90;;;;;;4847705;29;20438;-64
2021/04/16 00:20:22;;;;;;;6.65;3.17;;;5.10;95.30;;;;;;4855242;29;20049;-64
2021/04/16 00:22:48;;;;;;;8.18;3.97;;;5.10;95.50;;;;;;4845167;29;20049;-64
2021/04/16 00:25:20;;;;;;;8.90;3.47;;;5.10;95.40;;;;;;4846392;29;20049;-64
2021/04/16 00:27:47;;;;;;;7.55;3.30;;;5.20;95.20;;;;;;4840993;29;20045;-64
2021/04/16 00:30:15;;;;;;;6.43;3.42;;;5.10;95.30;;;;;;4841162;29;20762;-64
2021/04/16 00:32:41;;;;;;;6.82;3.65;;;5.10;95.30;;;;;;4851158;29;20447;-64
2021/04/16 00:35:14;;;;;;;5.25;2.63;;;5.10;95.40;;;;;;4835051;29;20112;-64
2021/04/16 00:37:41;;;;;;;6.28;3.38;;;5.10;95.60;;;;;;4851088;29;20443;-64
2021/04/16 00:40:11;;;;;;;6.15;3.03;;;5.10;95.40;;;;;;4844294;29;22429;-64
2021/04/16 00:42:38;;;;;;;7.25;3.20;;;4.90;95.60;;;;;;4840638;29;20057;-64
2021/04/16 00:45:06;;;;;;;7.10;3.42;;;5.00;95.80;;;;;;4847407;29;20049;-64
2021/04/16 00:47:33;;;;;;;6.53;3.38;;;5.00;95.50;;;;;;4826133;29;20110;-64
2021/04/16 00:50:23;;;;;;;7.75;3.58;;;5.00;95.60;;;;;;4833661;29;20054;-64
2021/04/16 00:52:51;;;;;;;5.93;3.13;;;5.00;95.80;;;;;;4842110;29;20481;-64
2021/04/16 00:55:18;;;;;;;6.72;3.08;;;5.00;95.90;;;;;;4847445;29;20069;-64
2021/04/16 00:57:45;;;;;;;6.55;3.40;;;5.00;95.80;;;;;;4839785;29;20058;-64
2021/04/16 01:00:13;;;;;;;7.50;3.72;;;4.90;95.70;;;;;;4854870;29;20052;-64
2021/04/16 01:02:39;;;;;;;7.22;3.38;;;4.90;96.00;;;;;;4826327;29;20064;-64
2021/04/16 01:05:08;;;;;;;8.10;3.53;;;5.00;96.20;;;;;;4847448;29;20125;-64
2021/04/16 01:07:35;;;;;;;8.30;3.75;;;4.90;95.90;;;;;;4850783;29;20078;-64
2021/04/16 01:10:03;;;;;;;6.45;3.00;;;4.90;96.20;;;;;;4831753;29;20052;-64
2021/04/16 01:12:32;;;;;;;6.70;3.00;;;5.00;96.00;;;;;;4826972;29;20057;-64
2021/04/16 01:15:14;;;;;;;7.90;3.38;;;4.90;95.70;;;;;;4841450;29;20506;-64
2021/04/16 01:17:43;;;;;;;6.65;3.13;;;4.90;96.00;;;;;;4848770;29;20910;-64
2021/04/16 01:20:17;;;;;;;6.97;3.45;;;4.80;96.00;;;;;;4849781;29;20691;-64
2021/04/16 01:23:03;;;;;;;9.50;3.97;;;4.80;95.90;;;;;;4844916;29;20049;-64
2021/04/16 01:25:30;;;;;;;6.03;3.28;;;4.70;95.90;;;;;;4834513;29;20058;-64
2021/04/16 01:27:57;;;;;;;6.60;2.92;;;4.70;96.30;;;;;;4853227;29;20401;-64
2021/04/16 01:30:28;;;;;;;6.93;3.05;;;4.50;96.20;;;;;;4827628;29;20054;-64
2021/04/16 01:32:55;;;;;;;7.30;3.20;;;4.50;96.80;;;;;;4845313;29;20050;-64
2021/04/16 01:35:28;;;;;;;7.50;3.40;;;4.30;97.30;;;;;;4845000;29;20057;-64
2021/04/16 01:37:55;;;;;;;8.32;3.60;;;4.30;97.50;;;;;;4832759;29;20045;-64
2021/04/16 01:40:24;;;;;;;7.32;3.20;;;4.20;97.90;;;;;;4830116;29;20402;-64
2021/04/16 01:42:50;;;;;;;9.90;4.03;;;4.10;98.00;;;;;;4846036;29;20097;-64
2021/04/16 01:45:24;;;;;;;8.75;3.65;;;4.10;98.10;;;;;;4850827;29;20045;-64
2021/04/16 01:48:02;;;;;;;6.68;3.25;;;4.10;98.40;;;;;;4825734;29;20046;-64
2021/04/16 01:50:30;;;;;;;6.93;3.35;;;4.00;98.40;;;;;;4841567;29;20106;-64
2021/04/16 01:52:59;;;;;;;8.23;3.35;;;3.90;98.80;;;;;;4845049;29;20041;-64
2021/04/16 01:55:25;;;;;;;8.55;3.45;;;3.80;99.00;;;;;;4829313;29;20038;-64
2021/04/16 01:57:52;;;;;;;8.68;3.28;;;3.80;99.20;;;;;;4820650;29;20106;-64
2021/04/16 02:00:31;;;;;;;7.85;3.20;;;3.70;99.40;;;;;;4859682;29;20513;-63
2021/04/16 02:02:58;;;;;;;7.80;3.70;;;3.70;99.60;;;;;;4848237;29;20049;-63
2021/04/16 02:05:25;;;;;;;8.50;4.13;;;3.80;99.80;;;;;;4811222;29;20390;-64
2021/04/16 02:07:55;;;;;;;8.60;3.50;;;3.70;99.80;;;;;;4835994;29;20521;-64
2021/04/16 02:10:22;;;;;;;8.35;3.22;;;3.60;99.90;;;;;;4841721;29;20454;-64
2021/04/16 02:12:50;;;;;;;8.15;3.20;;;3.60;99.90;;;;;;4850979;29;20064;-64
2021/04/16 02:15:17;;;;;;;7.20;3.20;;;3.60;99.90;;;;;;4845903;29;20432;-65
2021/04/16 02:17:44;;;;;;;7.47;3.20;;;3.60;99.90;;;;;;4849742;29;20054;-64
2021/04/16 02:20:18;;;;;;;8.15;4.20;;;3.50;99.90;;;;;;4851891;29;20060;-65
2021/04/16 02:22:44;;;;;;;9.85;4.47;;;3.60;99.90;;;;;;4844489;29;20141;-64
2021/04/16 02:25:11;;;;;;;8.95;3.63;;;3.60;99.90;;;;;;4827280;29;20501;-64
2021/04/16 02:27:38;;;;;;;11.57;4.03;;;3.70;99.90;;;;;;4850029;29;20504;-64
2021/04/16 02:30:18;;;;;;;11.15;4.63;;;3.70;99.90;;;;;;4840402;29;20073;-64
2021/04/16 02:32:45;;;;;;;8.65;4.28;;;3.70;99.90;;;;;;4843010;29;20046;-64
2021/04/16 02:35:13;;;;;;;9.57;3.95;;;3.80;99.90;;;;;;4843213;29;20087;-64
2021/04/16 02:37:39;;;;;;;10.25;3.95;;;3.80;99.90;;;;;;4835324;29;20049;-64
2021/04/16 02:40:09;;;;;;;9.10;3.90;;;3.80;99.90;;;;;;4839846;29;20114;-63
2021/04/16 02:42:36;;;;;;;8.60;3.58;;;3.60;99.90;;;;;;4824343;29;20404;-64
2021/04/16 02:45:06;;;;;;;7.82;3.60;;;3.60;99.90;;;;;;4833513;29;20047;-63
2021/04/16 02:47:32;;;;;;;10.07;3.80;;;3.60;99.90;;;;;;4848809;29;20510;-64
2021/04/16 02:49:59;;;;;;;10.43;4.20;;;3.60;99.90;;;;;;4847583;29;20550;-63
2021/04/16 02:52:26;;;;;;;8.50;3.25;;;3.70;99.90;;;;;;4845996;29;20042;-64
2021/04/16 02:54:53;;;;;;;9.88;3.72;;;3.80;99.90;;;;;;4843503;29;20046;-64
2021/04/16 02:57:20;;;;;;;10.07;4.30;;;3.70;99.90;;;;;;4842549;29;20106;-64
2021/04/16 02:59:46;;;;;;;8.15;3.45;;;3.80;99.90;;;;;;4843387;29;20053;-64
2021/04/16 03:02:12;;;;;;;9.75;4.13;;;3.80;99.90;;;;;;4829177;29;20062;-64
2021/04/16 03:04:41;;;;;;;12.40;4.22;;;3.70;99.90;;;;;;4844129;29;20206;-64
2021/04/16 03:07:07;;;;;;;9.85;3.75;;;3.80;99.90;;;;;;4841559;29;20451;-64
2021/04/16 03:09:34;;;;;;;9.05;4.10;;;3.90;99.90;;;;;;4839188;29;20110;-64
2021/04/16 03:12:00;;;;;;;7.90;3.63;;;3.90;99.70;;;;;;4839105;29;20054;-63
2021/04/16 03:14:27;;;;;;;10.07;4.38;;;3.90;99.60;;;;;;4839003;29;20057;-64
2021/04/16 03:16:53;;;;;;;10.00;3.75;;;4.00;99.60;;;;;;4845149;29;20034;-64
2021/04/16 03:19:20;;;;;;;11.82;5.03;;;3.90;99.70;;;;;;4830871;29;20042;-64
2021/04/16 03:21:46;;;;;;;11.68;4.05;;;4.00;99.40;;;;;;4849265;29;20046;-64
2021/04/16 03:24:13;;;;;;;11.75;4.28;;;3.80;99.60;;;;;;4837141;29;20050;-64
2021/04/16 03:26:39;;;;;;;11.23;4.82;;;4.00;99.50;;;;;;4848128;29;20831;-64
2021/04/16 03:29:06;;;;;;;11.48;4.05;;;3.90;99.40;;;;;;4850255;29;20045;-64
2021/04/16 03:31:33;;;;;;;13.90;4.97;;;3.90;99.30;;;;;;4853677;29;20041;-64
2021/04/16 03:34:01;;;;;;;10.27;3.88;;;3.80;99.70;;;;;;4846638;29;20046;-64
2021/04/16 03:36:29;;;;;;;10.70;4.38;;;3.70;99.70;;;;;;4828480;29;20146;-64
2021/04/16 03:38:56;;;;;;;9.20;4.05;;;3.70;99.80;;;;;;4842892;29;20528;-64
2021/04/16 03:41:23;;;;;;;10.85;4.45;;;3.80;99.90;;;;;;4846981;29;20096;-63
2021/04/16 03:43:49;;;;;;;10.52;4.30;;;3.80;99.90;;;;;;4849834;29;20056;-64
2021/04/16 03:46:16;;;;;;;12.27;4.70;;;3.80;99.90;;;;;;4848194;29;20046;-64
2021/04/16 03:48:43;;;;;;;15.30;6.45;;;3.70;99.90;;;;;;4819246;29;20137;-64
2021/04/16 03:51:10;;;;;;;13.57;6.65;;;3.80;99.80;;;;;;4843032;29;20069;-63
2021/04/16 03:53:40;;;;;;;15.07;6.30;;;3.70;99.90;;;;;;4850727;29;20500;-65
2021/04/16 03:56:08;;;;;;;13.18;5.05;;;3.70;99.90;;;;;;4843221;29;20108;-64
2021/04/16 03:58:35;;;;;;;11.88;5.50;;;3.60;99.90;;;;;;4833507;29;20057;-64
2021/04/16 04:01:05;;;;;;;10.63;5.05;;;3.60;99.90;;;;;;4856404;29;20060;-64
2021/04/16 04:03:32;;;;;;;12.90;5.15;;;3.60;99.90;;;;;;4823556;29;20136;-64
2021/04/16 04:05:59;;;;;;;11.38;4.55;;;3.60;99.90;;;;;;4859251;29;20049;-64
2021/04/16 04:08:26;;;;;;;11.38;4.07;;;3.50;99.90;;;;;;4842948;29;20057;-64
2021/04/16 04:10:52;;;;;;;11.77;4.43;;;3.40;99.90;;;;;;4834879;29;20061;-64
2021/04/16 04:13:19;;;;;;;9.50;4.43;;;3.50;99.90;;;;;;4846444;29;20493;-64
2021/04/16 04:15:46;;;;;;;9.82;4.10;;;3.60;99.90;;;;;;4848421;29;20050;-64
2021/04/16 04:18:27;;;;;;;8.90;3.83;;;3.60;99.90;;;;;;4845124;29;20081;-64
2021/04/16 04:20:54;;;;;;;13.10;5.13;;;3.60;99.90;;;;;;4836297;29;20446;-64
2021/04/16 04:23:20;;;;;;;11.55;4.90;;;3.60;99.90;;;;;;4838935;29;20540;-64
2021/04/16 04:25:47;;;;;;;11.10;4.63;;;3.50;99.90;;;;;;4836726;29;20049;-64
2021/04/16 04:28:14;;;;;;;12.48;5.00;;;3.50;99.90;;;;;;4831291;29;20037;-64
2021/04/16 04:30:40;;;;;;;11.45;4.85;;;3.50;99.90;;;;;;4843326;29;20107;-64
2021/04/16 04:33:07;;;;;;;12.65;4.50;;;3.60;99.90;;;;;;4847462;29;20049;-63
2021/04/16 04:35:34;;;;;;;11.05;4.30;;;3.70;99.90;;;;;;4841804;29;20098;-64
2021/04/16 04:38:01;;;;;;;9.60;4.50;;;3.60;99.90;;;;;;4840600;29;20064;-64
2021/04/16 04:40:28;;;;;;;11.70;5.03;;;3.60;99.90;;;;;;4848630;29;20049;-64
2021/04/16 04:42:55;;;;;;;9.63;4.10;;;3.60;99.90;;;;;;4840783;29;20069;-63
2021/04/16 04:45:23;;;;;;;11.65;4.50;;;3.70;99.90;;;;;;4827952;29;20046;-64
2021/04/16 04:47:50;;;;;;;11.70;4.82;;;3.60;99.90;;;;;;4834809;29;20541;-64
2021/04/16 04:50:17;;;;;;;10.35;3.85;;;3.80;99.90;;;;;;4858556;29;20474;-63
2021/04/16 04:52:44;;;;;;;11.00;4.75;;;3.90;99.90;;;;;;4841478;29;20052;-64
2021/04/16 04:55:14;;;;;;;12.50;5.05;;;3.90;99.90;;;;;;4832899;29;20605;-64
2021/04/16 04:57:40;;;;;;;11.10;5.38;;;4.00;99.90;;;;;;4837643;29;20050;-64
2021/04/16 05:00:10;;;;;;;9.90;4.47;;;3.90;99.90;;;;;;4847292;29;20566;-64
2021/04/16 05:02:38;;;;;;;12.30;4.63;;;4.00;99.90;;;;;;4844340;29;20049;-64
2021/04/16 05:05:06;;;;;;;9.70;4.50;;;4.10;99.90;;;;;;4855182;29;20106;-64
2021/04/16 05:07:33;;;;;;;8.82;4.57;;;4.20;99.90;;;;;;4830274;29;20053;-64
2021/04/16 05:09:59;;;;;;;12.52;5.47;;;4.30;99.40;;;;;;4851266;29;20049;-63
2021/04/16 05:12:26;;;;;;;16.52;5.75;;;4.20;99.10;;;;;;4840927;29;20062;-64
2021/04/16 05:14:53;;;;;;;21.02;7.28;;;4.30;98.90;;;;;;4848946;29;20440;-64
2021/04/16 05:17:19;;;;;;;13.93;4.68;;;4.40;99.10;;;;;;4845067;29;20054;-64
2021/04/16 05:19:46;;;;;;;10.68;4.70;;;4.40;98.80;;;;;;4839776;29;20063;-64
2021/04/16 05:22:14;;;;;;;12.15;4.97;;;4.50;98.80;;;;;;4835205;29;20137;-63
2021/04/16 05:24:40;;;;;;;13.05;5.90;;;4.60;98.30;;;;;;4850462;29;20053;-63
2021/04/16 05:27:19;;;;;;;8.65;4.47;;;4.70;98.30;;;;;;4839551;29;20049;-64
2021/04/16 05:29:45;;;;;;;10.68;4.35;;;4.80;97.80;;;;;;4852679;29;20490;-63
2021/04/16 05:32:13;;;;;;;9.68;4.22;;;4.80;97.60;;;;;;4843250;29;20042;-64
2021/04/16 05:34:41;;;;;;;9.52;4.03;;;4.80;97.70;;;;;;4853071;29;20053;-63
2021/04/16 05:37:09;;;;;;;8.35;3.25;;;4.90;97.30;;;;;;4829852;29;20041;-64
2021/04/16 05:39:35;;;;;;;9.18;4.10;;;5.00;97.50;;;;;;4838383;29;20049;-64
2021/04/16 05:42:02;;;;;;;9.07;3.53;;;5.00;97.20;;;;;;4852030;29;20473;-64
2021/04/16 05:44:29;;;;;;;10.05;4.68;;;5.10;97.00;;;;;;4839225;29;20387;-63
2021/04/16 05:46:56;;;;;;;9.23;3.15;;;5.10;96.60;;;;;;4834911;29;20050;-64
2021/04/16 05:49:25;;;;;;;6.05;3.20;;;5.20;96.10;;;;;;4832645;29;20065;-63
2021/04/16 05:51:53;;;;;;;9.80;3.50;;;5.20;95.90;;;;;;4853211;29;20821;-63
2021/04/16 05:54:20;;;;;;;7.35;3.22;;;5.30;96.20;;;;;;4847738;29;20057;-63
2021/04/16 05:56:46;;;;;;;7.07;2.97;;;5.40;95.60;;;;;;4835184;29;20049;-63
2021/04/16 05:59:13;;;;;;;8.10;3.08;;;5.40;95.60;;;;;;4838082;29;20101;-64
2021/04/16 06:01:40;;;;;;;7.60;3.10;;;5.50;94.90;;;;;;4847564;29;20046;-63
2021/04/16 06:04:09;;;;;;;5.97;2.83;;;5.50;94.00;;;;;;4847453;29;20050;-64
2021/04/16 06:06:35;;;;;;;7.88;3.25;;;5.70;94.40;;;;;;4840983;29;20391;-63
2021/04/16 06:09:02;;;;;;;7.57;2.85;;;5.70;93.80;;;;;;4824499;29;20057;-63
2021/04/16 06:11:29;;;;;;;7.93;3.38;;;5.70;93.50;;;;;;4844316;29;20061;-64
2021/04/16 06:13:55;;;;;;;6.28;2.88;;;5.80;93.70;;;;;;4834686;29;20521;-64
2021/04/16 06:16:22;;;;;;;6.65;3.47;;;5.90;93.40;;;;;;4830535;29;20351;-65
2021/04/16 06:18:50;;;;;;;7.43;3.42;;;5.90;92.90;;;;;;4847856;29;20046;-64
2021/04/16 06:21:17;;;;;;;6.80;3.03;;;6.00;93.10;;;;;;4833743;29;20370;-63
2021/04/16 06:23:43;;;;;;;5.80;2.88;;;6.10;92.80;;;;;;4838963;29;20049;-63
2021/04/16 06:26:10;;;;;;;5.47;2.50;;;6.10;92.60;;;;;;4852075;29;20552;-63
2021/04/16 06:28:36;;;;;;;8.40;3.72;;;6.10;92.70;;;;;;4838275;29;20045;-63
2021/04/16 06:31:03;;;;;;;6.13;2.58;;;6.20;91.90;;;;;;4843750;29;20046;-63
2021/04/16 06:33:35;;;;;;;7.47;3.92;;;6.30;91.90;;;;;;4814323;29;20050;-64
2021/04/16 06:36:04;;;;;;;;;;;6.30;91.60;;;;;;4826904;29;20076;-64
2021/04/16 06:38:34;;;;;;;7.10;3.80;;;6.30;91.60;;;;;;4837160;29;19931;-63
2021/04/16 06:41:03;;;;;;;12.23;4.90;;;6.40;91.40;;;;;;4843926;29;20050;-63
2021/04/16 06:43:51;;;;;;;6.57;2.70;;;6.40;91.30;;;;;;4843702;29;20057;-63
2021/04/16 06:46:33;;;;;;;5.93;2.65;;;6.40;89.70;;;;;;4832258;29;20049;-64
2021/04/16 06:49:04;;;;;;;4.13;1.98;;;6.50;91.00;;;;;;4851495;29;20145;-64
2021/04/16 06:51:34;;;;;;;6.32;2.45;;;6.60;90.40;;;;;;4836707;29;20153;-64
2021/04/16 06:54:05;;;;;;;4.95;2.20;;;6.70;89.30;;;;;;4828868;29;20046;-64
2021/04/16 06:56:36;;;;;;;5.35;2.20;;;6.80;88.70;;;;;;4846611;29;20053;-64
2021/04/16 06:59:02;;;;;;;6.43;2.83;;;6.90;87.40;;;;;;4838910;29;20064;-63
2021/04/16 07:01:42;;;;;;;7.03;2.88;;;7.00;88.60;;;;;;4828698;29;20064;-63
2021/04/16 07:04:13;;;;;;;6.38;2.22;;;7.10;89.30;;;;;;4848572;29;20128;-63
2021/04/16 07:06:40;;;;;;;4.78;2.03;;;7.10;89.10;;;;;;4850176;29;20045;-63
2021/04/16 07:09:18;;;;;;;5.95;2.50;;;7.10;85.30;;;;;;4836117;29;20103;-63
2021/04/16 07:12:24;;;;;;;4.95;2.20;;;7.10;87.40;;;;;;4828231;29;20057;-63
2021/04/16 07:14:55;;;;;;;5.22;2.40;;;7.20;86.60;;;;;;4847618;29;20048;-63
2021/04/16 07:17:27;;;;;;;5.90;2.50;;;7.20;85.40;;;;;;4847070;29;20706;-63
2021/04/16 07:19:53;;;;;;;5.03;2.63;;;7.10;84.70;;;;;;4845163;29;20056;-63
2021/04/16 07:22:24;;;;;;;5.68;2.85;;;7.10;85.10;;;;;;4822412;29;20099;-63
2021/04/16 07:24:52;;;;;;;5.95;2.70;;;6.90;84.30;;;;;;4836368;29;20053;-63
2021/04/16 07:27:42;;;;;;;6.25;2.35;;;6.90;84.80;;;;;;4845935;29;20530;-63
2021/04/16 07:30:31;;;;;;;6.15;2.55;;;6.90;85.60;;;;;;4846024;29;20102;-63
2021/04/16 07:32:59;;;;;;;5.03;2.38;;;6.90;84.80;;;;;;4840553;29;20041;-64
2021/04/16 07:35:33;;;;;;;6.78;2.75;;;6.90;84.80;;;;;;4836809;29;20772;-64
2021/04/16 07:38:00;;;;;;;7.18;3.53;;;6.90;84.70;;;;;;4832522;29;20066;-63
2021/04/16 07:40:39;;;;;;;10.70;3.88;;;6.80;85.40;;;;;;4845587;29;20045;-63
2021/04/16 07:43:06;;;;;;;7.45;3.35;;;6.60;84.20;;;;;;4846845;29;20048;-63
2021/04/16 07:45:33;;;;;;;6.18;2.60;;;6.60;84.80;;;;;;4834998;29;20042;-63
2021/04/16 07:48:18;;;;;;;5.95;2.63;;;6.40;84.40;;;;;;4855035;29;20045;-63
2021/04/16 07:50:51;;;;;;;6.25;2.83;;;6.50;85.00;;;;;;4824376;29;20141;-63
2021/04/16 07:53:32;;;;;;;5.75;2.25;;;6.60;86.60;;;;;;4843171;29;20042;-64
2021/04/16 07:56:23;;;;;;;4.70;2.58;;;6.70;85.50;;;;;;4853950;29;20453;-64
2021/04/16 07:59:09;;;;;;;7.13;3.33;;;6.80;84.40;;;;;;4820275;29;20429;-63
2021/04/16 08:01:41;;;;;;;6.93;3.00;;;6.90;86.00;;;;;;4845865;29;20060;-63
2021/04/16 08:04:29;;;;;;;7.60;2.85;;;6.90;85.50;;;;;;4857053;29;20041;-63
2021/04/16 08:07:18;;;;;;;7.32;2.78;;;6.90;87.00;;;;;;4852186;29;20489;-63
2021/04/16 08:09:45;;;;;;;5.57;2.80;;;7.10;86.90;;;;;;4848658;29;20129;-63
2021/04/16 08:12:16;;;;;;;8.48;3.08;;;7.10;86.00;;;;;;4848868;29;20053;-63
2021/04/16 08:14:44;;;;;;;6.32;2.88;;;7.40;86.40;;;;;;4839628;29;20048;-63
2021/04/16 08:17:24;;;;;;;6.80;2.85;;;7.60;85.70;;;;;;4845463;29;20049;-63
2021/04/16 08:19:51;;;;;;;5.03;2.63;;;7.50;82.20;;;;;;4821822;29;20050;-63
2021/04/16 08:22:31;;;;;;;5.20;2.30;;;7.50;85.80;;;;;;4850358;29;20046;-63
2021/04/16 08:25:11;;;;;;;5.72;2.55;;;7.70;83.70;;;;;;4828614;29;20065;-63
2021/04/16 08:27:46;;;;;;;5.68;2.17;;;7.40;82.20;;;;;;4847393;29;20045;-63
2021/04/16 08:30:16;;;;;;;6.40;2.85;;;7.40;80.60;;;;;;4847651;29;20060;-63
2021/04/16 08:33:09;;;;;;;5.32;2.58;;;7.30;81.30;;;;;;4826983;29;20400;-63
2021/04/16 08:35:51;;;;;;;4.53;2.47;;;7.40;81.90;;;;;;4830610;29;20045;-63
2021/04/16 08:38:21;;;;;;;7.50;3.33;;;7.70;84.80;;;;;;4826983;29;20055;-63
2021/04/16 08:40:52;;;;;;;5.60;2.72;;;8.00;83.50;;;;;;4830633;29;20057;-63
2021/04/16 08:44:00;;;;;;;6.93;3.10;;;7.90;80.30;;;;;;4844858;29;20848;-63
2021/04/16 08:46:46;;;;;;;5.70;2.60;;;8.00;79.50;;;;;;4834867;29;20048;-62
2021/04/16 08:49:29;;;;;;;5.82;2.55;;;8.20;80.50;;;;;;4827686;29;20522;-64
2021/04/16 08:52:14;;;;;;;6.05;2.83;;;8.40;78.80;;;;;;4847559;29;20080;-64
2021/04/16 08:54:43;;;;;;;5.85;3.05;;;8.30;75.20;;;;;;4846001;29;20478;-63
2021/04/16 08:57:28;;;;;;;5.78;2.63;;;8.40;77.00;;;;;;4833601;29;20061;-63
2021/04/16 09:00:19;;;;;;;5.43;2.35;;;8.40;77.90;;;;;;4857324;29;20045;-63
2021/04/16 09:02:52;;;;;;;5.45;2.08;;;8.30;76.50;;;;;;4833543;29;20057;-63
2021/04/16 09:05:27;;;;;;;4.13;1.92;;;8.10;75.30;;;;;;4844236;29;20297;-63
2021/04/16 09:08:09;;;;;;;5.18;1.95;;;8.10;75.80;;;;;;4841298;29;20045;-64
2021/04/16 09:10:41;;;;;;;10.82;3.63;;;8.10;77.10;;;;;;4842308;29;20049;-63
2021/04/16 09:13:13;;;;;;;6.72;2.47;;;8.20;77.00;;;;;;4829886;29;20106;-64
2021/04/16 09:15:42;;;;;;;7.47;3.08;;;8.20;77.30;;;;;;4827347;29;20168;-64
2021/04/16 09:18:23;;;;;;;7.55;2.63;;;8.40;76.40;;;;;;4829475;29;20085;-64
2021/04/16 09:20:51;;;;;;;4.35;1.80;;;8.40;78.00;;;;;;4847525;29;20129;-64
2021/04/16 09:23:27;;;;;;;5.30;2.42;;;8.50;77.90;;;;;;4846346;29;20387;-64
2021/04/16 09:25:53;;;;;;;5.63;2.42;;;8.30;74.80;;;;;;4843259;29;20052;-64
2021/04/16 09:28:23;;;;;;;5.03;2.10;;;8.30;75.60;;;;;;4815425;29;20053;-64
2021/04/16 09:30:59;;;;;;;7.80;2.85;;;8.30;76.20;;;;;;4832499;29;20065;-64
2021/04/16 09:33:33;;;;;;;5.25;2.03;;;8.30;76.00;;;;;;4827036;29;20050;-64
2021/04/16 09:36:28;;;;;;;4.30;1.92;;;8.10;75.00;;;;;;4822991;29;20152;-63
2021/04/16 09:39:35;;;;;;;5.60;2.17;;;8.00;75.60;;;;;;4833405;29;20049;-65
2021/04/16 09:42:36;;;;;;;3.10;1.88;;;8.00;76.30;;;;;;4836163;29;20053;-64
2021/04/16 09:45:07;;;;;;;5.38;2.08;;;8.00;76.40;;;;;;4828178;29;20053;-64
2021/04/16 09:47:50;;;;;;;6.35;2.63;;;8.00;76.60;;;;;;4847680;29;20046;-64
2021/04/16 09:50:27;;;;;;;6.40;2.60;;;7.90;78.30;;;;;;4821727;29;20068;-64
2021/04/16 09:53:28;;;;;;;6.10;3.17;;;8.10;78.80;;;;;;4849198;29;20045;-64
2021/04/16 09:55:58;;;;;;;5.88;2.45;;;8.10;77.60;;;;;;4827060;29;20687;-65
2021/04/16 09:58:31;;;;;;;6.18;2.67;;;8.00;76.70;;;;;;4835525;29;20053;-65
2021/04/16 10:00:58;;;;;;;6.07;2.83;;;7.90;78.40;;;;;;4836068;29;20429;-64
2021/04/16 10:03:45;;;;;;;6.03;2.90;;;8.00;77.30;;;;;;4849434;29;20056;-64
2021/04/16 10:06:34;;;;;;;4.60;2.25;;;8.00;77.10;;;;;;4823215;29;20060;-64
2021/04/16 10:09:17;;;;;;;4.25;2.30;;;8.10;77.20;;;;;;4845627;29;20394;-65
2021/04/16 10:11:46;;;;;;;6.05;2.30;;;8.10;76.90;;;;;;4843867;29;20054;-65
2021/04/16 10:14:33;;;;;;;6.00;2.63;;;8.10;77.80;;;;;;4817841;29;20053;-65
2021/04/16 10:17:19;;;;;;;5.20;2.58;;;8.00;76.60;;;;;;4843692;29;20058;-65
2021/04/16 10:20:00;;;;;;;7.13;2.70;;;7.90;78.30;;;;;;4850083;29;20425;-63
2021/04/16 10:22:36;;;;;;;7.25;3.28;;;7.90;77.40;;;;;;4836852;29;20061;-63
2021/04/16 10:26:42;;;;;;;7.78;2.88;;;7.90;78.20;;;;;;4850052;29;20595;-63
2021/04/16 12:38:20;;;;;;;6.55;2.67;;;7.90;80.60;;;;;;4828114;29;20061;-64
2021/04/16 12:40:47;;;;;;;7.03;3.42;;;7.80;80.80;;;;;;4827629;29;20473;-63
2021/04/16 12:43:14;;;;;;;6.88;3.38;;;7.90;80.90;;;;;;4824291;29;20060;-64
2021/04/16 12:45:42;;;;;;;7.38;3.08;;;8.00;81.00;;;;;;4825674;29;20050;-64
2021/04/16 12:48:11;;;;;;;6.72;3.17;;;7.90;80.30;;;;;;4837166;29;20372;-64
2021/04/16 12:50:37;;;;;;;5.45;2.60;;;7.90;81.30;;;;;;4829700;29;20045;-64
2021/04/16 12:53:04;;;;;;;7.93;2.83;;;8.00;79.90;;;;;;4820248;29;20051;-64
2021/04/16 12:55:30;;;;;;;5.57;2.60;;;8.00;80.90;;;;;;4840335;29;20057;-64
2021/04/16 12:58:03;;;;;;;8.75;2.80;;;8.10;80.90;;;;;;4825526;29;20558;-64
2021/04/16 13:00:31;;;;;;;;;;;8.10;80.30;;;;;;4836837;29;20050;-63
2021/04/16 13:03:02;;;;;;;9.02;4.05;;;8.30;80.40;;;;;;4828774;29;19928;-64
2021/04/16 13:05:32;;;;;;;9.32;3.75;;;8.30;78.70;;;;;;4830960;29;20050;-63
2021/04/16 13:07:58;;;;;;;9.07;4.10;;;8.20;78.80;;;;;;4819736;29;20050;-64
2021/04/16 13:10:25;;;;;;;12.43;5.45;;;8.30;79.10;;;;;;4831162;29;20050;-63
2021/04/16 13:12:52;;;;;;;15.80;4.97;;;8.30;79.20;;;;;;4830342;29;20106;-64
2021/04/16 13:15:20;;;;;;;10.27;4.30;;;8.30;79.40;;;;;;4825819;29;20049;-64
2021/04/16 13:17:56;;;;;;;7.80;3.40;;;8.10;79.60;;;;;;4823129;29;20056;-63
2021/04/16 13:20:25;;;;;;;98.88;26.08;;;8.10;78.70;;;;;;4834298;29;20773;-64
2021/04/16 13:22:52;;;;;;;147.55;40.58;;;8.20;79.90;;;;;;4831133;29;20054;-63
2021/04/16 13:25:22;;;;;;;11.65;4.25;;;8.20;80.30;;;;;;4820334;29;20391;-64
2021/04/16 13:27:50;;;;;;;8.40;3.97;;;8.20;79.00;;;;;;4832745;29;20065;-64
2021/04/16 13:30:22;;;;;;;7.55;3.25;;;8.20;79.60;;;;;;4826270;29;20174;-64
2021/04/16 13:32:51;;;;;;;7.97;3.70;;;8.20;80.00;;;;;;4828586;29;20050;-64
2021/04/16 13:35:28;;;;;;;9.00;3.30;;;8.20;80.40;;;;;;4822249;29;20113;-64
2021/04/16 13:37:54;;;;;;;8.57;3.95;;;8.30;79.50;;;;;;4836482;29;20046;-63
2021/04/16 13:40:21;;;;;;;8.70;3.70;;;8.30;79.90;;;;;;4831010;29;20814;-63
2021/04/16 13:42:48;;;;;;;8.43;3.15;;;8.40;79.50;;;;;;4827005;29;20050;-63
2021/04/16 13:45:21;;;;;;;6.68;3.15;;;8.40;79.60;;;;;;4824372;29;20057;-64
2021/04/16 13:47:55;;;;;;;8.60;4.40;;;8.40;79.20;;;;;;4826766;29;20054;-63
2021/04/16 13:50:22;;;;;;;9.68;3.90;;;8.50;80.20;;;;;;4826954;29;20392;-63
2021/04/16 13:52:49;;;;;;;11.85;4.00;;;8.40;79.50;;;;;;4823918;29;20064;-63
2021/04/16 13:55:17;;;;;;;8.10;3.88;;;8.50;79.60;;;;;;4824793;29;20813;-64
2021/04/16 13:57:44;;;;;;;6.85;3.00;;;8.50;80.00;;;;;;4827075;29;20053;-64
2021/04/16 14:00:15;;;;;;;8.63;3.97;;;8.50;79.10;;;;;;4829702;29;20058;-64
2021/04/16 14:02:46;;;;;;;11.40;3.92;;;8.60;79.10;;;;;;4822203;29;20050;-64
2021/04/16 14:05:20;;;;;;;7.70;3.53;;;8.50;79.00;;;;;;4819667;29;20499;-64
2021/04/16 14:07:48;;;;;;;7.13;3.25;;;8.50;79.80;;;;;;4830625;29;20043;-63
2021/04/16 14:10:16;;;;;;;7.07;3.47;;;8.50;79.90;;;;;;4827731;29;20618;-64
2021/04/16 14:12:42;;;;;;;8.48;3.40;;;8.60;79.80;;;;;;4831961;29;20076;-63
2021/04/16 14:15:10;;;;;;;8.30;4.30;;;8.60;79.90;;;;;;4809986;29;20065;-63
2021/04/16 14:17:53;;;;;;;36.35;14.93;;;8.70;79.70;;;;;;4824105;29;20545;-64
2021/04/16 14:20:25;;;;;;;22.17;9.25;;;8.70;79.30;;;;;;4822284;29;20102;-64
2021/04/16 14:22:53;;;;;;;18.85;8.55;;;8.80;79.10;;;;;;4827780;29;20053;-63
2021/04/16 14:25:33;;;;;;;7.57;3.63;;;8.80;78.20;;;;;;4829488;29;20083;-63
2021/04/16 14:28:02;;;;;;;10.65;4.63;;;8.90;78.10;;;;;;4811454;29;20110;-63
2021/04/16 14:30:32;;;;;;;7.22;3.33;;;8.90;78.50;;;;;;4811695;29;20082;-63
2021/04/16 14:33:02;;;;;;;8.00;4.13;;;8.80;78.40;;;;;;4840151;29;20054;-63
2021/04/16 14:35:32;;;;;;;12.88;4.95;;;8.90;79.00;;;;;;4826533;29;20086;-63
2021/04/16 14:37:59;;;;;;;13.18;5.97;;;9.00;78.90;;;;;;4806941;29;20053;-63
2021/04/16 14:40:26;;;;;;;18.00;9.40;;;9.00;78.90;;;;;;4826203;29;20094;-63
2021/04/16 14:42:53;;;;;;;8.68;4.82;;;9.00;78.20;;;;;;4829623;29;20045;-63
2021/04/16 14:45:25;;;;;;;11.10;6.05;;;8.90;78.30;;;;;;4828677;29;20681;-63
2021/04/16 14:47:55;;;;;;;12.30;5.80;;;9.00;79.00;;;;;;4827695;29;20057;-63
2021/04/16 14:50:24;;;;;;;12.20;5.45;;;9.00;79.00;;;;;;4827340;29;20061;-64
2021/04/16 14:52:52;;;;;;;14.20;6.35;;;9.00;78.00;;;;;;4818515;29;20413;-63
2021/04/16 14:55:43;;;;;;;19.02;9.23;;;8.90;78.10;;;;;;4825032;29;20452;-64
2021/04/16 14:58:12;;;;;;;25.55;11.40;;;8.90;77.60;;;;;;4820609;29;20062;-64
2021/04/16 15:00:39;;;;;;;9.73;5.78;;;8.90;78.20;;;;;;4827836;29;20046;-64
2021/04/16 15:03:06;;;;;;;13.07;7.13;;;8.90;77.70;;;;;;4830323;29;20121;-64
2021/04/16 15:05:34;;;;;;;41.70;16.00;;;9.00;78.90;;;;;;4814054;29;20133;-64
2021/04/16 15:08:12;;;;;;;19.83;8.82;;;9.00;78.40;;;;;;4825886;29;20057;-64
2021/04/16 15:10:49;;;;;;;24.98;10.77;;;9.10;79.40;;;;;;4818707;29;20101;-63
2021/04/16 15:13:26;;;;;;;10.55;5.85;;;9.10;78.20;;;;;;4828922;29;20058;-63
2021/04/16 15:15:53;;;;;;;10.52;5.15;;;9.00;77.30;;;;;;4828344;29;20042;-63
2021/04/16 15:18:20;;;;;;;15.27;6.28;;;9.00;78.30;;;;;;4827242;29;20123;-63
2021/04/16 15:20:48;;;;;;;12.32;5.70;;;8.90;78.20;;;;;;4823769;29;20053;-63
2021/04/16 15:23:16;;;;;;;10.05;5.25;;;8.90;78.70;;;;;;4836699;29;20050;-63
2021/04/16 15:25:46;;;;;;;10.35;4.97;;;8.90;79.40;;;;;;4832932;29;20046;-63